Airfield :
LOGIN :

Register | Disclaimer

   EN    FR    IT 

 










Legend :    VFR   Marginal VFR   IFR   Intensive IFR   Very Intensive IFR
Visi :
Ceiling :
>= 8 km
>= 3000ft
5 to 8 km
1000 to 3000 ft
1500m to 5 km
500 to 1000 ft
800 to 1500m
200 to 500 ft
< 800m
< 200 ft
Symbols :   Thunderstorms  Fog  Heavy snow  Heavy precipitations  Wind > 20 kt
SIGMETs :     Misc.  Thunderstorms  Icing  Turbulence  Mountain Waves  Volcanic Ashes







- Airport Elevation : 17 ft
- IATA code : GRQ


EHGG - Groningen Eelde

CURRENT METAR :
  • 201455Z AUTO 28012KT 240V320 9999 BKN025 BKN029 BKN035 18/13 Q1020 NOSIG

EXPIRED METARs :
  • 201425Z AUTO 28016KT 240V310 9999 NSC 19/12 Q1020 NOSIG
  • 201355Z AUTO 27014KT 230V310 9999 NSC 18/12 Q1020 NOSIG
  • 201325Z AUTO 28014KT 240V320 9999 FEW032 SCT043 18/12 Q1020 NOSIG
  • 201255Z AUTO 27014KT 230V310 9999 SCT031 SCT047 19/12 Q1020 NOSIG
  • 201225Z AUTO 27016KT 230V310 9999 NSC 19/13 Q1020 NOSIG

TAF TAF EHGG
Valid from the 20 at 12:00 until the 21 at 18:00 UTC


201118Z 2012/2118 27013KT 9999 SCT025
PROB40
TEMPO 2012/2017 7000 -SHRA SCT025CB BKN030
BECMG 2020/2023 24005KT
PROB30 2100/2105 7000 MIFG
No reported NOTAMs for that airfield.



MET'MAP, your aeronautical weather chart ! - Copyright ORBIFLY December 2007 - Disclaimer

ORBIFLY MET'MAP TEAM :

Programming & Development : Alexandra Zaïnal
Concept & Development : Baudouin d'Aumeries
Co-Development & Prog : Marc-Olivier Méhu
Technical & hardware support : Manuel Goepfert

Contact : metmap@orbifly.com




SOURCES & CREDITS :

   NOAA